KMSP

Minneapolis-Saint Paul International Airport

Airport
ICAO code
KMSP
IATA Code
MSP
Summary
ICAO Region
NAM
ICAO Territory
Location

Minneapolis, Minnesota,

Serving
Hennepin County
Elevation
841 ft
Coordinates
44° 52' 58" N , 93° 13' 15" W
KCC
Dfa
Airport CFIT
Altimeter Temperature Error Correction
Airport GND
Aircraft Ground De/Anti Icing
Airport LOS
Parallel Runway Operation
Airport WX
Fog
Metar
Observation
KMSP 171153Z 00000KT 10SM SCT065 BKN200 19/14 A3018 RMK AO2 SLP215 T01940139 10222 20178 53007
Station
Minneapolis, Minneapolis-St. Paul International Airport
Date/Time
2022-08-17 11:53:00
Wind direction
Wind speed
00 kts
Lowest cloud amount
scattered clouds
Temperature
19.4°C
Dew point
13.9°C
Humidity
70%
Weather condition
n/a

Description

International airport serving Minneapolis St Paul, USA

Climatology

Humid continental climate (Köppen climate classification Dfa) - characterized by four seasons: cold, windy, snowy winters, mild springs, hot, humid summers, and crisp and relatively short autumns. Precipitation reaches its lowest in January and February and peaks in summer and latter half of spring.

Runways

Designator Length Width Surface Rops
12L/30R 2438 46 PEM Yes/Yes
17/35 2438 46 CON Yes/Yes
12R/30L 3048 61 PEM Yes/Yes
4/22 3355 46 CON Yes/Yes

Airport map

Aerial View

SKYbrary Partners:

Safety knowledge contributed by: